Pagina principale
METAR-TAF:

METAR-TAF

Aeroporti :

Aeroporto di Gran Canaria

Gran Canaria, Spagna

latitudine: 27-56N, longitudine: 015-23W, altezza: 23 m

Osservazione

Il bollettino è stato emesso 38 minuti fa, alle 17:00 UTC
Vento 23 kt da nord
Temperature 27°C
Umidità 70%
Pressione 1016 hPa
Visibilità 10 km o più
Poco nuvoloso ad un'altezza di 6000 ft

METAR: GCLP 141700Z 01023KT 9999 FEW060 27/21 Q1016 NOSIG

Ora: 18:38 (17:38 UTC)

Previsione

Il bollettino è stato emesso 3 ore e 38 minuti fa, alle 14:00 UTC
Previsione valida dal 14 alle 15 UTC al 15 alle 15 UTC
Vento 20 kt da nord
Visibilità 10 km o più
nessuna nube inferiore a 1500 m e nessun cumulonembo

TAF: GCLP 141400Z 1415/1515 01020KT CAVOK TX28/1514Z TN22/1505Z

Osservazioni e previsioni meteorologiche di più di 4000 aeroporti (messaggi METAR e TAF).

Le stazioni disponibili sono rappresentate dai dischi gialli e rossi sulla carta.

Puntare il mouse per vedere il nome della stazione.

Clicca sopra per visualizzare le osservazioni e previsioni meteorologiche.

Per cambiare la mappa : fare clic sui pulsanti verdi con una croce nera per ingrandire, il pulsante verde con un trattino per diminuire, o sulla freccia verde per le mappe adiacenti.


METAR-TAF: